Time;durP1;ratioP1;P1;durP2;ratioP2;P2;SDS_P1;SDS_P2;PMS_P1;PMS_P2;Temp;Humidity;BMP_temperature;BMP_pressure;BME280_temperature;BME280_humidity;BME280_pressure;Samples;Min_cycle;Max_cycle;Signal;HPM_P1;HPM_P2
2023/06/09 00:00:26;;;;;;;17.02;11.85;;;;;;;;;;5031705;28;20037;-72
2023/06/09 00:02:52;;;;;;;14.27;12.27;;;;;;;;;;5031567;28;20030;-72
2023/06/09 00:05:19;;;;;;;19.02;12.30;;;;;;;;;;5031209;28;20475;-71
2023/06/09 00:07:48;;;;;;;17.73;11.88;;;;;;;;;;5031400;28;20029;-72
2023/06/09 00:10:14;;;;;;;15.35;11.50;;;;;;;;;;5031617;28;20447;-72
2023/06/09 00:12:41;;;;;;;13.65;10.35;;;;;;;;;;5031606;28;20056;-72
2023/06/09 00:15:10;;;;;;;15.93;11.63;;;;;;;;;;5031459;28;20021;-72
2023/06/09 00:17:39;;;;;;;15.30;12.57;;;;;;;;;;5032023;28;20053;-72
2023/06/09 00:20:08;;;;;;;18.55;12.75;;;;;;;;;;5031337;28;20025;-72
2023/06/09 00:22:34;;;;;;;16.50;12.50;;;;;;;;;;5031617;28;20136;-72
2023/06/09 00:25:01;;;;;;;18.25;11.45;;;;;;;;;;5031440;28;20396;-72
2023/06/09 00:27:27;;;;;;;16.75;13.25;;;;;;;;;;5030977;28;20764;-72
2023/06/09 00:29:53;;;;;;;13.98;12.05;;;;;;;;;;5031417;28;20487;-72
2023/06/09 00:32:20;;;;;;;17.80;12.73;;;;;;;;;;5031613;28;20028;-72
2023/06/09 00:34:46;;;;;;;16.02;11.98;;;;;;;;;;5031216;28;20018;-72
2023/06/09 00:37:12;;;;;;;12.82;10.30;;;;;;;;;;5031085;28;20033;-72
2023/06/09 00:39:38;;;;;;;14.52;12.23;;;;;;;;;;5025874;28;20033;-72
2023/06/09 00:42:05;;;;;;;14.98;11.98;;;;;;;;;;5031095;28;20028;-72
2023/06/09 00:44:31;;;;;;;11.98;10.77;;;;;;;;;;5031014;28;20048;-72
2023/06/09 00:46:57;;;;;;;12.73;11.48;;;;;;;;;;5031192;28;20033;-73
2023/06/09 00:49:23;;;;;;;23.55;12.73;;;;;;;;;;5031006;28;20075;-72
2023/06/09 00:51:49;;;;;;;15.20;12.50;;;;;;;;;;5031317;28;20014;-72
2023/06/09 00:54:18;;;;;;;14.55;11.63;;;;;;;;;;5031159;28;20144;-73
2023/06/09 00:56:44;;;;;;;16.85;11.98;;;;;;;;;;5031053;28;20028;-73
2023/06/09 00:59:14;;;;;;;17.35;12.50;;;;;;;;;;4997640;28;20025;-72
2023/06/09 01:01:40;;;;;;;15.05;11.55;;;;;;;;;;5031235;28;20021;-72
2023/06/09 01:04:08;;;;;;;16.95;12.80;;;;;;;;;;5031185;28;20026;-72
2023/06/09 01:06:43;;;;;;;13.10;11.68;;;;;;;;;;5031069;28;20472;-72
2023/06/09 01:09:10;;;;;;;13.85;11.13;;;;;;;;;;5030864;28;20138;-73
2023/06/09 01:11:42;;;;;;;14.32;11.85;;;;;;;;;;5031014;28;20479;-72
2023/06/09 01:14:14;;;;;;;16.45;12.57;;;;;;;;;;5030961;28;20060;-72
2023/06/09 01:16:52;;;;;;;21.90;12.55;;;;;;;;;;5030956;28;20479;-72
2023/06/09 01:19:40;;;;;;;13.25;11.35;;;;;;;;;;5015856;28;20029;-72
2023/06/09 01:22:18;;;;;;;17.48;13.35;;;;;;;;;;5021823;28;20025;-73
2023/06/09 01:24:47;;;;;;;17.35;13.63;;;;;;;;;;5030949;28;20060;-73
2023/06/09 01:27:16;;;;;;;13.95;12.57;;;;;;;;;;5030713;28;20025;-73
2023/06/09 01:29:43;;;;;;;16.08;12.63;;;;;;;;;;5024904;28;20033;-73
2023/06/09 01:32:10;;;;;;;15.15;13.65;;;;;;;;;;5032058;28;20026;-73
2023/06/09 01:34:36;;;;;;;16.58;12.57;;;;;;;;;;5033894;28;20531;-72
2023/06/09 01:37:03;;;;;;;15.13;13.43;;;;;;;;;;5034221;28;20036;-72
2023/06/09 01:39:29;;;;;;;16.20;12.40;;;;;;;;;;5034231;28;20030;-73
2023/06/09 01:41:55;;;;;;;13.90;12.45;;;;;;;;;;5034450;28;20112;-73
2023/06/09 01:44:21;;;;;;;18.83;12.25;;;;;;;;;;5035431;28;20119;-72
2023/06/09 01:46:47;;;;;;;18.27;13.82;;;;;;;;;;5034111;28;20149;-72
2023/06/09 01:49:13;;;;;;;19.20;13.70;;;;;;;;;;5017513;28;20109;-72
2023/06/09 01:51:48;;;;;;;16.00;12.23;;;;;;;;;;5034976;28;20024;-72
2023/06/09 01:54:17;;;;;;;15.73;13.23;;;;;;;;;;5037334;28;20025;-72
2023/06/09 01:56:44;;;;;;;25.52;13.68;;;;;;;;;;5035239;28;20080;-72
2023/06/09 01:59:14;;;;;;;15.27;12.68;;;;;;;;;;5018690;28;20032;-72
2023/06/09 02:01:43;;;;;;;14.85;12.10;;;;;;;;;;5035218;28;20382;-72
2023/06/09 02:04:11;;;;;;;17.67;13.27;;;;;;;;;;5024480;28;20029;-72
2023/06/09 02:06:38;;;;;;;16.05;13.70;;;;;;;;;;5034189;28;20037;-72
2023/06/09 02:09:04;;;;;;;15.60;13.80;;;;;;;;;;5033822;28;20028;-71
2023/06/09 02:11:30;;;;;;;15.75;12.70;;;;;;;;;;5033689;28;20360;-72
2023/06/09 02:13:57;;;;;;;17.80;13.27;;;;;;;;;;5034373;28;20112;-72
2023/06/09 02:16:24;;;;;;;21.08;13.80;;;;;;;;;;5026785;28;20072;-71
2023/06/09 02:18:50;;;;;;;16.70;13.95;;;;;;;;;;5035690;28;20105;-72
2023/06/09 02:21:17;;;;;;;20.23;13.55;;;;;;;;;;5035179;28;20025;-72
2023/06/09 02:23:43;;;;;;;20.85;14.23;;;;;;;;;;5036404;28;20364;-71
2023/06/09 02:26:09;;;;;;;17.25;14.18;;;;;;;;;;5036435;28;20025;-72
2023/06/09 02:28:35;;;;;;;15.80;13.57;;;;;;;;;;5035026;28;20033;-72
2023/06/09 02:31:01;;;;;;;20.23;16.13;;;;;;;;;;5034071;28;20028;-72
2023/06/09 02:33:27;;;;;;;19.05;15.48;;;;;;;;;;5034310;28;20053;-72
2023/06/09 02:35:54;;;;;;;19.67;14.57;;;;;;;;;;5034344;28;20068;-72
2023/06/09 02:38:21;;;;;;;16.75;14.52;;;;;;;;;;5033634;28;20029;-72
2023/06/09 02:40:48;;;;;;;17.90;14.55;;;;;;;;;;5033185;28;20033;-72
2023/06/09 02:43:14;;;;;;;21.05;14.07;;;;;;;;;;5033139;28;20116;-72
2023/06/09 02:45:40;;;;;;;19.10;14.88;;;;;;;;;;5032412;28;20025;-72
2023/06/09 02:48:06;;;;;;;20.45;14.30;;;;;;;;;;5032878;28;20037;-72
2023/06/09 02:50:32;;;;;;;20.05;14.45;;;;;;;;;;5027171;28;20017;-72
2023/06/09 02:52:58;;;;;;;24.60;15.00;;;;;;;;;;5016645;28;20036;-72
2023/06/09 02:55:24;;;;;;;16.90;14.10;;;;;;;;;;5033266;28;20018;-72
2023/06/09 02:57:50;;;;;;;18.33;14.13;;;;;;;;;;5020958;28;20112;-72
2023/06/09 03:00:17;;;;;;;16.92;13.65;;;;;;;;;;5033306;28;20017;-72
2023/06/09 03:02:45;;;;;;;19.05;13.63;;;;;;;;;;5033041;28;20025;-72
2023/06/09 03:05:11;;;;;;;16.17;12.90;;;;;;;;;;5000088;28;20109;-72
2023/06/09 03:07:37;;;;;;;22.50;13.77;;;;;;;;;;5032856;28;20040;-72
2023/06/09 03:10:06;;;;;;;16.00;13.13;;;;;;;;;;5032828;28;20412;-71
2023/06/09 03:12:32;;;;;;;14.88;12.82;;;;;;;;;;5032845;28;20024;-71
2023/06/09 03:14:58;;;;;;;20.42;13.02;;;;;;;;;;5033028;28;20130;-72
2023/06/09 03:17:25;;;;;;;18.77;12.75;;;;;;;;;;5032376;28;20163;-72
2023/06/09 03:19:51;;;;;;;15.13;12.35;;;;;;;;;;5032895;28;20049;-72
2023/06/09 03:22:17;;;;;;;18.15;12.98;;;;;;;;;;5032886;28;20029;-72
2023/06/09 03:24:44;;;;;;;16.63;11.18;;;;;;;;;;5032764;28;20669;-72
2023/06/09 03:27:10;;;;;;;16.40;11.85;;;;;;;;;;5032665;28;20049;-72
2023/06/09 03:29:36;;;;;;;17.05;12.38;;;;;;;;;;5032411;28;20017;-71
2023/06/09 03:32:03;;;;;;;14.80;11.10;;;;;;;;;;5032372;28;20532;-71
2023/06/09 03:34:29;;;;;;;14.75;11.02;;;;;;;;;;5032157;28;20028;-71
2023/06/09 03:36:55;;;;;;;11.95;10.25;;;;;;;;;;5017869;28;20156;-71
2023/06/09 03:39:21;;;;;;;17.00;10.27;;;;;;;;;;5031857;28;20053;-71
2023/06/09 03:41:47;;;;;;;11.43;9.05;;;;;;;;;;5032357;28;20527;-72
2023/06/09 03:44:13;;;;;;;19.73;9.38;;;;;;;;;;5032349;28;20462;-72
2023/06/09 03:46:39;;;;;;;13.75;10.80;;;;;;;;;;5032244;28;20480;-72
2023/06/09 03:49:05;;;;;;;13.55;10.13;;;;;;;;;;5031820;28;20025;-72
2023/06/09 03:51:31;;;;;;;14.70;8.63;;;;;;;;;;5032054;28;20491;-72
2023/06/09 03:53:57;;;;;;;13.40;8.95;;;;;;;;;;5031865;28;20022;-72
2023/06/09 03:56:23;;;;;;;10.55;8.48;;;;;;;;;;5024318;28;20567;-72
2023/06/09 03:58:50;;;;;;;10.88;8.30;;;;;;;;;;5031732;28;20048;-71
2023/06/09 04:01:17;;;;;;;14.68;8.57;;;;;;;;;;5031999;28;20112;-72
2023/06/09 04:03:43;;;;;;;10.63;7.30;;;;;;;;;;5018773;28;20079;-72
2023/06/09 04:06:09;;;;;;;11.77;7.75;;;;;;;;;;5031638;28;20029;-71
2023/06/09 04:08:36;;;;;;;13.02;7.50;;;;;;;;;;5031468;28;20459;-71
2023/06/09 04:11:02;;;;;;;10.25;7.47;;;;;;;;;;5031738;28;20031;-72
2023/06/09 04:13:28;;;;;;;10.77;7.07;;;;;;;;;;5031732;28;20222;-71
2023/06/09 04:15:54;;;;;;;11.95;7.53;;;;;;;;;;5031580;28;20053;-72
2023/06/09 04:18:20;;;;;;;11.43;6.95;;;;;;;;;;5031335;28;20041;-72
2023/06/09 04:20:46;;;;;;;12.13;7.10;;;;;;;;;;5031482;28;20048;-72
2023/06/09 04:23:13;;;;;;;9.07;7.38;;;;;;;;;;5031435;28;20383;-72
2023/06/09 04:25:39;;;;;;;9.90;7.30;;;;;;;;;;5031457;28;20029;-72
2023/06/09 04:28:06;;;;;;;11.85;6.95;;;;;;;;;;5020985;28;20038;-72
2023/06/09 04:30:34;;;;;;;8.90;6.82;;;;;;;;;;5031480;28;20450;-72
2023/06/09 04:33:00;;;;;;;8.40;6.97;;;;;;;;;;5031386;28;20531;-72
2023/06/09 04:35:26;;;;;;;10.20;6.30;;;;;;;;;;5031155;28;20508;-74
2023/06/09 04:37:53;;;;;;;11.13;7.00;;;;;;;;;;5031518;28;20072;-72
2023/06/09 04:40:23;;;;;;;8.95;7.05;;;;;;;;;;5031601;28;20439;-72
2023/06/09 04:42:55;;;;;;;13.32;7.38;;;;;;;;;;5031508;28;20033;-72
2023/06/09 04:45:27;;;;;;;7.90;6.45;;;;;;;;;;5015657;28;20029;-73
2023/06/09 04:47:59;;;;;;;13.20;7.28;;;;;;;;;;5031145;28;20026;-73
2023/06/09 04:50:25;;;;;;;8.73;6.78;;;;;;;;;;5024280;28;20507;-71
2023/06/09 04:52:51;;;;;;;14.68;7.38;;;;;;;;;;5015638;28;20026;-71
2023/06/09 04:55:17;;;;;;;9.25;6.72;;;;;;;;;;5031006;28;20026;-71
2023/06/09 04:57:43;;;;;;;11.35;6.88;;;;;;;;;;5030705;28;20088;-73
2023/06/09 05:00:15;;;;;;;13.63;6.97;;;;;;;;;;5031127;28;20018;-71
2023/06/09 05:02:42;;;;;;;10.27;6.28;;;;;;;;;;5030960;28;20037;-71
2023/06/09 05:05:09;;;;;;;9.25;5.95;;;;;;;;;;5031136;28;20029;-72
2023/06/09 05:07:35;;;;;;;9.88;6.70;;;;;;;;;;5030915;28;20037;-73
2023/06/09 05:10:01;;;;;;;13.18;6.93;;;;;;;;;;5024257;28;20052;-73
2023/06/09 05:12:27;;;;;;;15.95;5.90;;;25.20;51.80;;;;;;5022755;28;20017;-72
2023/06/09 05:14:52;;;;;;;10.20;6.60;;;25.30;51.10;;;;;;5034668;28;20048;-72
2023/06/09 05:17:18;;;;;;;10.07;6.10;;;25.80;49.00;;;;;;5034395;28;20041;-73
2023/06/09 05:19:44;;;;;;;13.40;5.90;;;27.00;47.70;;;;;;5034809;28;20112;-73
2023/06/09 05:22:09;;;;;;;14.13;6.53;;;27.70;45.60;;;;;;5034587;28;20022;-73
2023/06/09 05:24:35;;;;;;;16.92;5.60;;;28.50;44.20;;;;;;5034518;28;20094;-72
2023/06/09 05:27:00;;;;;;;7.63;5.25;;;29.40;41.50;;;;;;5034098;28;20056;-72
2023/06/09 05:29:26;;;;;;;8.43;5.50;;;;;;;;;;5034515;28;20025;-72
2023/06/09 05:31:52;;;;;;;7.13;5.90;;;;;;;;;;5034330;28;20025;-72
2023/06/09 05:34:18;;;;;;;9.23;5.85;;;;;;;;;;5034483;28;20067;-73
2023/06/09 05:36:45;;;;;;;12.57;5.38;;;;;;;;;;5019772;28;20369;-72
2023/06/09 05:39:11;;;;;;;11.65;6.07;;;;;;;;;;5034062;28;20045;-73
2023/06/09 05:41:36;;;;;;;8.02;6.03;;;30.30;38.90;;;;;;5034256;28;20026;-73
2023/06/09 05:44:02;;;;;;;8.30;6.43;;;29.90;38.80;;;;;;5033979;28;20029;-73
2023/06/09 05:46:28;;;;;;;8.43;5.85;;;;;;;;;;5034132;28;20033;-71
2023/06/09 05:48:54;;;;;;;8.38;5.35;;;;;;;;;;5034082;28;20022;-72
2023/06/09 05:51:20;;;;;;;13.27;6.85;;;;;;;;;;5034062;28;20020;-73
2023/06/09 05:53:46;;;;;;;10.85;6.30;;;;;;;;;;5031904;28;20017;-72
2023/06/09 05:56:15;;;;;;;8.63;5.70;;;;;;;;;;5017655;28;20116;-72
2023/06/09 05:58:40;;;;;;;10.68;5.75;;;31.50;37.80;;;;;;5033406;28;20184;-72
2023/06/09 06:01:07;;;;;;;15.95;6.07;;;32.20;36.20;;;;;;5033813;28;20064;-73
2023/06/09 06:03:33;;;;;;;10.73;6.20;;;32.40;35.80;;;;;;5033232;28;20018;-72
2023/06/09 06:05:58;;;;;;;11.15;6.78;;;32.40;34.80;;;;;;5031775;28;20021;-72
2023/06/09 06:08:24;;;;;;;11.07;6.50;;;32.40;35.30;;;;;;5031529;28;20026;-73
2023/06/09 06:10:51;;;;;;;9.48;6.18;;;33.20;34.40;;;;;;5032683;28;20071;-73
2023/06/09 06:13:16;;;;;;;11.80;6.18;;;33.50;33.70;;;;;;5030725;28;20029;-73
2023/06/09 06:15:43;;;;;;;12.07;6.63;;;34.50;33.10;;;;;;5028895;28;20028;-72
2023/06/09 06:18:08;;;;;;;12.98;6.63;;;34.60;32.20;;;;;;5033312;28;20064;-72
2023/06/09 06:20:34;;;;;;;10.30;6.63;;;;;;;;;;5033304;28;20457;-72
2023/06/09 06:23:01;;;;;;;15.35;6.78;;;;;;;;;;5033199;28;20117;-72
2023/06/09 06:25:28;;;;;;;11.43;6.82;;;;;;;;;;5033623;28;20025;-74
2023/06/09 06:27:55;;;;;;;10.48;6.70;;;35.50;31.20;;;;;;5033368;28;20033;-72
2023/06/09 06:30:21;;;;;;;11.88;7.72;;;35.20;30.90;;;;;;5033608;28;20032;-72
2023/06/09 06:32:51;;;;;;;11.00;7.25;;;34.20;32.00;;;;;;5033442;28;20108;-72
2023/06/09 06:35:28;;;;;;;11.07;7.13;;;;;;;;;;5030681;28;20032;-72
2023/06/09 06:37:54;;;;;;;17.73;8.15;;;;;;;;;;5022497;28;20040;-73
2023/06/09 06:40:20;;;;;;;10.15;6.55;;;;;;;;;;5031986;28;20057;-73
2023/06/09 06:42:46;;;;;;;13.07;7.40;;;34.90;32.40;;;;;;5031980;28;20029;-73
2023/06/09 06:45:11;;;;;;;9.68;7.68;;;34.90;31.80;;;;;;5033350;28;20368;-73
2023/06/09 06:47:37;;;;;;;7.82;6.57;;;32.20;35.30;;;;;;5032318;28;20030;-72
2023/06/09 06:50:04;;;;;;;11.25;6.47;;;33.50;34.20;;;;;;5032956;28;20041;-72
2023/06/09 06:52:31;;;;;;;8.88;7.22;;;34.60;33.10;;;;;;5033036;28;20029;-73
2023/06/09 06:54:58;;;;;;;8.95;6.45;;;35.90;31.00;;;;;;5033002;28;20029;-73
2023/06/09 06:57:24;;;;;;;10.40;7.40;;;35.70;31.30;;;;;;5032746;28;20021;-72
2023/06/09 06:59:50;;;;;;;11.35;6.18;;;;;;;;;;5025966;28;20025;-73
2023/06/09 07:02:16;;;;;;;9.35;6.47;;;36.30;30.40;;;;;;5032900;28;20053;-73
2023/06/09 07:04:41;;;;;;;9.15;6.70;;;36.50;29.60;;;;;;5032736;28;20503;-72
2023/06/09 07:07:09;;;;;;;8.98;6.25;;;37.10;29.00;;;;;;5032492;28;20027;-72
2023/06/09 07:09:35;;;;;;;8.00;6.63;;;37.00;29.20;;;;;;5032093;28;20021;-72
2023/06/09 07:12:01;;;;;;;10.60;7.32;;;36.60;30.20;;;;;;5032168;28;20048;-72
2023/06/09 07:14:31;;;;;;;11.45;8.02;;;35.50;30.40;;;;;;5031327;28;20061;-72
2023/06/09 07:16:56;;;;;;;11.73;8.60;;;34.10;32.50;;;;;;5031272;28;20026;-73
2023/06/09 07:19:22;;;;;;;12.73;8.45;;;;;;;;;;5032366;28;20387;-73
2023/06/09 07:21:48;;;;;;;12.50;6.88;;;;;;;;;;5032379;28;20528;-73
2023/06/09 07:24:14;;;;;;;17.15;8.07;;;;;;;;;;5032252;28;20022;-74
2023/06/09 07:26:40;;;;;;;12.45;8.25;;;33.20;34.00;;;;;;5018253;28;20403;-72
2023/06/09 07:29:06;;;;;;;14.75;7.80;;;32.20;36.10;;;;;;5031875;28;20025;-74
2023/06/09 07:31:31;;;;;;;11.02;7.93;;;33.00;34.90;;;;;;5031873;28;20128;-73
2023/06/09 07:33:57;;;;;;;13.75;9.30;;;33.60;32.90;;;;;;5032167;28;20029;-67
2023/06/09 07:36:24;;;;;;;14.77;8.02;;;31.90;35.80;;;;;;5020763;28;20472;-66
2023/06/09 07:38:50;;;;;;;14.15;8.70;;;30.70;37.90;;;;;;5029179;28;20491;-74
2023/06/09 07:41:15;;;;;;;13.85;9.75;;;31.30;37.60;;;;;;5032996;28;20108;-74
2023/06/09 07:43:42;;;;;;;11.55;9.40;;;;;;;;;;5033211;28;20160;-73
2023/06/09 07:46:10;;;;;;;13.82;9.80;;;28.60;41.80;;;;;;5032165;28;20037;-75
2023/06/09 07:48:37;;;;;;;10.73;9.13;;;29.10;41.70;;;;;;5024990;28;20096;-75
2023/06/09 07:51:03;;;;;;;9.75;8.35;;;30.20;40.00;;;;;;5032680;28;20021;-75
2023/06/09 07:53:29;;;;;;;12.25;7.80;;;31.60;38.20;;;;;;5031526;28;20044;-72
2023/06/09 07:55:54;;;;;;;12.70;8.48;;;32.40;36.00;;;;;;5027437;28;20049;-73
2023/06/09 07:58:20;;;;;;;13.02;10.13;;;33.40;34.00;;;;;;5029694;28;20052;-73
2023/06/09 08:00:46;;;;;;;10.82;8.93;;;33.30;32.60;;;;;;5030599;28;20036;-72
2023/06/09 08:03:12;;;;;;;10.25;9.18;;;32.70;33.80;;;;;;5027438;28;20034;-73
2023/06/09 08:05:37;;;;;;;18.00;9.40;;;32.90;34.00;;;;;;5030244;28;20025;-72
2023/06/09 08:08:03;;;;;;;13.85;9.65;;;32.70;34.70;;;;;;5030673;28;20109;-72
2023/06/09 08:10:29;;;;;;;12.30;7.80;;;31.90;35.10;;;;;;5030412;28;20102;-72
2023/06/09 08:12:54;;;;;;;14.90;8.40;;;31.30;37.20;;;;;;5031521;28;20030;-72
2023/06/09 08:15:21;;;;;;;12.80;7.55;;;30.80;37.30;;;;;;5031416;28;20479;-73
2023/06/09 08:17:47;;;;;;;10.15;7.88;;;31.40;37.20;;;;;;5031523;28;20026;-73
2023/06/09 08:20:12;;;;;;;13.05;8.32;;;32.00;37.00;;;;;;5031624;28;20037;-73
2023/06/09 08:22:38;;;;;;;12.10;7.95;;;32.50;35.00;;;;;;5028327;28;20025;-73
2023/06/09 08:25:04;;;;;;;11.07;7.55;;;32.70;35.30;;;;;;5016132;28;20496;-73
2023/06/09 08:27:30;;;;;;;8.60;7.68;;;32.40;34.30;;;;;;5031537;28;20025;-73
2023/06/09 08:29:55;;;;;;;9.57;7.43;;;33.40;33.60;;;;;;5024407;28;20025;-73
2023/06/09 08:32:21;;;;;;;11.85;7.95;;;33.50;32.50;;;;;;5040490;28;20369;-74
2023/06/09 08:34:46;;;;;;;11.45;7.85;;;33.40;33.60;;;;;;5041909;28;20085;-73
2023/06/09 08:37:12;;;;;;;12.70;7.28;;;34.50;32.90;;;;;;5041015;28;20089;-73
2023/06/09 08:39:38;;;;;;;9.13;6.90;;;35.10;30.70;;;;;;5037935;28;20399;-73
2023/06/09 08:42:09;;;;;;;8.73;7.82;;;35.30;31.10;;;;;;5036558;28;20476;-73
2023/06/09 08:44:40;;;;;;;8.93;7.13;;;35.90;30.60;;;;;;5038629;28;20076;-73
2023/06/09 08:47:08;;;;;;;11.70;7.68;;;36.40;29.00;;;;;;5037879;28;20098;-73
2023/06/09 08:49:35;;;;;;;9.70;6.53;;;35.50;30.10;;;;;;5027920;28;20025;-73
2023/06/09 08:52:04;;;;;;;10.40;7.88;;;35.80;30.90;;;;;;5035296;28;20017;-73
2023/06/09 08:54:30;;;;;;;12.25;6.95;;;36.10;30.60;;;;;;5035127;28;20013;-73
2023/06/09 08:56:56;;;;;;;9.65;7.35;;;36.80;29.70;;;;;;5034828;28;20026;-73
2023/06/09 08:59:23;;;;;;;11.15;7.10;;;36.20;30.10;;;;;;5029310;28;20040;-72
2023/06/09 09:01:49;;;;;;;15.48;8.32;;;36.40;29.70;;;;;;5035541;28;20030;-73
2023/06/09 09:04:19;;;;;;;8.55;7.65;;;35.70;29.20;;;;;;5034739;28;20025;-73
2023/06/09 09:06:45;;;;;;;11.73;7.73;;;33.50;32.60;;;;;;5034981;28;20025;-73
2023/06/09 09:09:11;;;;;;;17.70;10.13;;;;;;;;;;5034804;28;20052;-73
2023/06/09 09:11:38;;;;;;;14.77;9.02;;;;;;;;;;5033311;28;20024;-73
2023/06/09 09:14:11;;;;;;;10.45;9.32;;;;;;;;;;5033341;28;20026;-73
2023/06/09 09:16:37;;;;;;;10.90;9.63;;;;;;;;;;5033772;28;20480;-73
2023/06/09 09:19:04;;;;;;;12.27;8.70;;;;;;;;;;5032982;28;20052;-73
2023/06/09 09:21:30;;;;;;;12.63;8.57;;;;;;;;;;5031594;28;20086;-72
2023/06/09 09:24:01;;;;;;;9.57;8.57;;;;;;;;;;5032701;28;20029;-72
2023/06/09 09:26:30;;;;;;;16.73;8.73;;;32.80;35.20;;;;;;5032821;28;20026;-74
2023/06/09 09:29:03;;;;;;;11.77;8.70;;;33.20;34.50;;;;;;5032925;28;20034;-72
2023/06/09 09:31:34;;;;;;;11.38;8.05;;;34.10;33.60;;;;;;5032436;28;20028;-72
2023/06/09 09:34:00;;;;;;;9.07;7.00;;;34.70;32.00;;;;;;5022549;28;20037;-72
2023/06/09 09:36:26;;;;;;;8.35;6.60;;;33.90;32.40;;;;;;5022818;28;20029;-73
2023/06/09 09:38:55;;;;;;;7.28;6.57;;;33.10;32.20;;;;;;5031873;28;20444;-72
2023/06/09 09:41:21;;;;;;;10.80;6.90;;;33.60;32.10;;;;;;5034371;28;20131;-73
2023/06/09 09:43:46;;;;;;;10.50;6.35;;;34.00;31.50;;;;;;5021678;28;20116;-72
2023/06/09 09:46:12;;;;;;;14.73;7.30;;;34.90;31.10;;;;;;5034166;28;20468;-74
2023/06/09 09:48:38;;;;;;;12.52;7.15;;;34.50;30.90;;;;;;5034117;28;20025;-72
2023/06/09 09:51:05;;;;;;;8.98;6.90;;;34.40;31.70;;;;;;5033913;28;20549;-73
2023/06/09 09:53:31;;;;;;;13.40;6.90;;;33.40;32.70;;;;;;5033862;28;20025;-73
2023/06/09 09:56:00;;;;;;;9.05;6.55;;;32.40;33.40;;;;;;5033632;28;20032;-73
2023/06/09 09:58:31;;;;;;;17.13;6.15;;;31.50;34.60;;;;;;5033945;28;20484;-73
2023/06/09 10:00:59;;;;;;;8.45;6.75;;;;;;;;;;5034090;28;20053;-74
2023/06/09 10:03:25;;;;;;;9.32;6.50;;;;;;;;;;5033714;28;20026;-72
2023/06/09 10:05:54;;;;;;;10.35;6.55;;;;;;;;;;5033759;28;20025;-73
2023/06/09 10:08:21;;;;;;;9.40;6.15;;;;;;;;;;5033504;28;20101;-73
2023/06/09 10:10:48;;;;;;;10.27;6.63;;;;;;;;;;5033421;28;20044;-73
2023/06/09 10:13:15;;;;;;;7.00;5.72;;;;;;;;;;5033649;28;20097;-72
2023/06/09 10:15:44;;;;;;;12.35;6.10;;;;;;;;;;5033504;28;20022;-72
2023/06/09 10:18:11;;;;;;;9.65;5.55;;;;;;;;;;5033512;28;20514;-73
2023/06/09 10:20:37;;;;;;;11.60;5.57;;;;;;;;;;5033497;28;20506;-72
2023/06/09 10:23:05;;;;;;;10.30;5.85;;;;;;;;;;5033105;28;20026;-73
2023/06/09 10:25:31;;;;;;;6.88;5.53;;;;;;;;;;5033240;28;20048;-73
2023/06/09 10:27:57;;;;;;;8.93;5.43;;;;;;;;;;5021780;28;20064;-73
2023/06/09 10:30:23;;;;;;;5.68;5.18;;;;;;;;;;5021639;28;20022;-73
2023/06/09 10:33:13;;;;;;;7.53;5.38;;;;;;;;;;5033099;28;20034;-72
2023/06/09 10:35:40;;;;;;;9.45;5.90;;;;;;;;;;5022817;28;20041;-73
2023/06/09 10:38:22;;;;;;;8.27;5.68;;;;;;;;;;5032825;28;20052;-72
2023/06/09 10:40:50;;;;;;;6.88;5.97;;;;;;;;;;5018056;28;20037;-73
2023/06/09 10:43:30;;;;;;;5.95;5.35;;;;;;;;;;5031435;28;20033;-72
2023/06/09 10:45:57;;;;;;;6.53;5.35;;;;;;;;;;5031034;28;20048;-72
2023/06/09 10:48:55;;;;;;;7.07;5.35;;;;;;;;;;5032327;28;20084;-72
2023/06/09 10:51:27;;;;;;;9.13;4.65;;;;;;;;;;4979914;28;20029;-73
2023/06/09 10:54:17;;;;;;;11.55;5.70;;;;;;;;;;5031203;28;20026;-73
2023/06/09 10:56:52;;;;;;;7.32;4.85;;;;;;;;;;5026996;28;20443;-72
2023/06/09 10:59:24;;;;;;;5.47;4.93;;;;;;;;;;5031206;28;20041;-73
2023/06/09 11:02:05;;;;;;;6.82;5.03;;;;;;;;;;5032299;28;20389;-73
2023/06/09 11:04:31;;;;;;;;;;;;;;;;;;5031057;28;20698;-72
2023/06/09 11:07:11;;;;;;;8.68;4.85;;;;;;;;;;5030010;28;19908;-73
2023/06/09 11:09:37;;;;;;;10.32;5.35;;;;;;;;;;5024402;28;20029;-73
2023/06/09 11:12:04;;;;;;;7.32;4.53;;;;;;;;;;5029363;28;20021;-72
2023/06/09 11:14:51;;;;;;;7.50;4.80;;;;;;;;;;5030080;28;20022;-72
2023/06/09 11:17:19;;;;;;;5.47;4.60;;;;;;;;;;4997528;28;20037;-72
2023/06/09 11:19:45;;;;;;;6.90;4.57;;;;;;;;;;5025544;28;20026;-72
2023/06/09 11:22:12;;;;;;;6.75;4.43;;;;;;;;;;5032259;28;20061;-72
2023/06/09 11:24:51;;;;;;;5.22;4.72;;;;;;;;;;5032068;28;20214;-72
2023/06/09 11:27:21;;;;;;;12.50;5.63;;;;;;;;;;5016597;28;20035;-72
2023/06/09 11:30:05;;;;;;;5.10;4.20;;;;;;;;;;5025226;28;20025;-72
2023/06/09 11:32:44;;;;;;;9.35;4.90;;;;;;;;;;5031788;28;20025;-73
2023/06/09 11:35:31;;;;;;;4.72;4.32;;;;;;;;;;5021569;28;20104;-73
2023/06/09 11:37:57;;;;;;;6.53;5.20;;;;;;;;;;5001627;28;20572;-74
2023/06/09 11:40:23;;;;;;;6.25;5.47;;;;;;;;;;5028868;28;20025;-73
2023/06/09 11:42:51;;;;;;;8.65;5.20;;;;;;;;;;5029343;28;20139;-74
2023/06/09 11:45:17;;;;;;;7.00;5.05;;;;;;;;;;5029453;28;20091;-73
2023/06/09 11:47:44;;;;;;;7.30;4.57;;;;;;;;;;5011662;28;20036;-72
2023/06/09 11:50:12;;;;;;;5.07;4.53;;;;;;;;;;5029989;28;20103;-74
2023/06/09 11:52:42;;;;;;;5.03;4.40;;;;;;;;;;5030251;28;20017;-73
2023/06/09 11:55:09;;;;;;;6.60;4.97;;;;;;;;;;5031869;28;20100;-72
2023/06/09 11:57:35;;;;;;;7.85;4.82;;;;;;;;;;5032089;28;20131;-73
2023/06/09 12:00:17;;;;;;;5.78;5.18;;;;;;;;;;5014237;28;20055;-73
2023/06/09 12:02:45;;;;;;;5.95;5.35;;;;;;;;;;5014105;28;20021;-73
2023/06/09 12:05:12;;;;;;;5.60;4.88;;;;;;;;;;5031964;28;20033;-75
2023/06/09 12:07:38;;;;;;;6.25;4.38;;;;;;;;;;5031641;28;20025;-73
2023/06/09 12:10:04;;;;;;;4.93;4.15;;;;;;;;;;5031955;28;20399;-73
2023/06/09 12:12:30;;;;;;;11.38;4.57;;;;;;;;;;5014124;28;20026;-73
2023/06/09 12:14:56;;;;;;;5.03;4.30;;;;;;;;;;5031612;28;20029;-73
2023/06/09 12:17:23;;;;;;;4.88;4.30;;;;;;;;;;5031384;28;20053;-73
2023/06/09 12:19:49;;;;;;;7.65;4.75;;;;;;;;;;5031464;28;20483;-73
2023/06/09 12:22:16;;;;;;;7.47;4.40;;;;;;;;;;5008063;28;20018;-74
2023/06/09 12:24:44;;;;;;;4.68;4.03;;;;;;;;;;5025628;28;20071;-74
2023/06/09 12:27:11;;;;;;;8.07;4.38;;;;;;;;;;5030174;28;20105;-74
2023/06/09 12:29:37;;;;;;;10.52;4.55;;;;;;;;;;5030415;28;20022;-74
2023/06/09 12:32:03;;;;;;;4.85;3.80;;;;;;;;;;5031053;28;20029;-75
2023/06/09 12:34:30;;;;;;;6.65;4.75;;;;;;;;;;5029924;28;20018;-75
2023/06/09 12:36:56;;;;;;;4.40;4.00;;;;;;;;;;5029399;28;20038;-76
2023/06/09 12:39:24;;;;;;;4.90;4.13;;;;;;;;;;5030544;28;20052;-74
2023/06/09 12:41:50;;;;;;;8.65;4.07;;;;;;;;;;5029807;28;20025;-74
2023/06/09 12:44:25;;;;;;;4.18;3.10;;;;;;;;;;5029648;28;20420;-74
2023/06/09 12:46:55;;;;;;;4.05;3.40;;;;;;;;;;5029532;28;20025;-74
2023/06/09 12:49:29;;;;;;;7.35;4.20;;;;;;;;;;5011703;28;20029;-74
2023/06/09 12:51:55;;;;;;;6.80;4.30;;;;;;;;;;5029606;28;20030;-74
2023/06/09 12:54:21;;;;;;;6.18;4.43;;;;;;;;;;5011530;28;20075;-74
2023/06/09 12:56:47;;;;;;;6.80;4.38;;;;;;;;;;5030482;28;20022;-74
2023/06/09 12:59:13;;;;;;;5.43;4.30;;;;;;;;;;5031140;28;20025;-74
2023/06/09 13:01:39;;;;;;;4.60;3.80;;;;;;;;;;5030663;28;20021;-73
2023/06/09 13:04:06;;;;;;;6.00;3.90;;;;;;;;;;5031119;28;20495;-73
2023/06/09 13:06:33;;;;;;;5.97;3.83;;;;;;;;;;5013348;28;20064;-74
2023/06/09 13:09:00;;;;;;;4.13;3.50;;;;;;;;;;5031027;28;20472;-73
2023/06/09 13:11:27;;;;;;;5.72;3.45;;;;;;;;;;5031022;28;20072;-74
2023/06/09 13:13:53;;;;;;;5.80;3.53;;;;;;;;;;5013518;28;20022;-74
2023/06/09 13:16:19;;;;;;;7.97;4.18;;;;;;;;;;5013224;28;20045;-74
2023/06/09 13:18:45;;;;;;;6.22;3.75;;;;;;;;;;5030507;28;20033;-75
2023/06/09 13:21:11;;;;;;;5.43;3.60;;;;;;;;;;5013322;28;20036;-74
2023/06/09 13:23:37;;;;;;;9.88;3.58;;;;;;;;;;5031146;28;20039;-73
2023/06/09 13:26:03;;;;;;;3.88;3.47;;;;;;;;;;5013028;28;20124;-73
2023/06/09 13:28:29;;;;;;;7.00;3.30;;;;;;;;;;5030699;28;20716;-74
2023/06/09 13:30:55;;;;;;;5.22;3.15;;;;;;;;;;5034309;28;20021;-74
2023/06/09 13:33:21;;;;;;;5.18;3.10;;;;;;;;;;5034606;28;20022;-74
2023/06/09 13:35:48;;;;;;;5.00;3.55;;;;;;;;;;5016590;28;20797;-74
2023/06/09 13:38:15;;;;;;;4.32;3.20;;;;;;;;;;5034522;28;20048;-74
2023/06/09 13:40:45;;;;;;;5.50;3.25;;;;;;;;;;5035299;28;20390;-76
2023/06/09 13:43:17;;;;;;;3.28;2.97;;;;;;;;;;5038576;28;20033;-75
2023/06/09 13:45:43;;;;;;;10.18;3.83;;;;;;;;;;5038025;28;20032;-77
2023/06/09 13:48:09;;;;;;;6.68;3.53;;;;;;;;;;5037851;28;20037;-76
2023/06/09 13:50:36;;;;;;;4.85;3.53;;;;;;;;;;5017240;28;20350;-74
2023/06/09 13:53:02;;;;;;;4.57;3.40;;;;;;;;;;5035018;28;20026;-74
2023/06/09 13:55:28;;;;;;;4.65;3.35;;;;;;;;;;5034912;28;20085;-74
2023/06/09 13:57:55;;;;;;;6.53;2.95;;;;;;;;;;5034928;28;20056;-74
2023/06/09 14:00:21;;;;;;;5.53;3.30;;;;;;;;;;5016960;28;20029;-74